sensor_id;sensor_type;location;lat;lon;timestamp;temperature;humidity
21085;DHT22;72320;50.082;20.000;2024-02-14T00:00:06;20.60;33.20
21085;DHT22;72320;50.082;20.000;2024-02-14T00:02:45;20.60;33.30
21085;DHT22;72320;50.082;20.000;2024-02-14T00:05:16;20.50;33.40
21085;DHT22;72320;50.082;20.000;2024-02-14T00:07:43;20.50;33.60
21085;DHT22;72320;50.082;20.000;2024-02-14T00:10:14;20.60;33.60
21085;DHT22;72320;50.082;20.000;2024-02-14T00:12:41;20.70;33.40
21085;DHT22;72320;50.082;20.000;2024-02-14T00:15:07;20.80;33.40
21085;DHT22;72320;50.082;20.000;2024-02-14T00:17:35;20.90;33.20
21085;DHT22;72320;50.082;20.000;2024-02-14T00:20:02;21.00;33.00
21085;DHT22;72320;50.082;20.000;2024-02-14T00:22:32;21.00;32.70
21085;DHT22;72320;50.082;20.000;2024-02-14T00:24:59;21.00;32.70
21085;DHT22;72320;50.082;20.000;2024-02-14T00:27:27;21.00;33.00
21085;DHT22;72320;50.082;20.000;2024-02-14T00:29:54;21.00;32.80
21085;DHT22;72320;50.082;20.000;2024-02-14T00:32:24;21.10;32.80
21085;DHT22;72320;50.082;20.000;2024-02-14T00:34:51;21.10;32.90
21085;DHT22;72320;50.082;20.000;2024-02-14T00:37:19;21.00;32.90
21085;DHT22;72320;50.082;20.000;2024-02-14T00:39:45;21.00;33.40
21085;DHT22;72320;50.082;20.000;2024-02-14T00:42:17;20.80;34.00
21085;DHT22;72320;50.082;20.000;2024-02-14T00:44:43;20.70;34.00
21085;DHT22;72320;50.082;20.000;2024-02-14T00:47:09;20.70;34.20
21085;DHT22;72320;50.082;20.000;2024-02-14T00:49:36;20.60;34.10
21085;DHT22;72320;50.082;20.000;2024-02-14T00:52:04;20.40;34.50
21085;DHT22;72320;50.082;20.000;2024-02-14T00:54:32;20.30;35.10
21085;DHT22;72320;50.082;20.000;2024-02-14T00:56:57;20.30;35.20
21085;DHT22;72320;50.082;20.000;2024-02-14T00:59:23;20.30;34.90
21085;DHT22;72320;50.082;20.000;2024-02-14T01:01:50;20.30;35.10
21085;DHT22;72320;50.082;20.000;2024-02-14T01:04:16;20.30;35.10
21085;DHT22;72320;50.082;20.000;2024-02-14T01:06:42;20.30;35.20
21085;DHT22;72320;50.082;20.000;2024-02-14T01:09:09;20.40;35.30
21085;DHT22;72320;50.082;20.000;2024-02-14T01:11:37;20.40;35.50
21085;DHT22;72320;50.082;20.000;2024-02-14T01:14:03;20.50;35.50
21085;DHT22;72320;50.082;20.000;2024-02-14T01:16:29;20.50;35.30
21085;DHT22;72320;50.082;20.000;2024-02-14T01:18:55;20.50;35.40
21085;DHT22;72320;50.082;20.000;2024-02-14T01:21:22;20.50;35.30
21085;DHT22;72320;50.082;20.000;2024-02-14T01:23:48;20.40;35.40
21085;DHT22;72320;50.082;20.000;2024-02-14T01:26:17;20.30;35.60
21085;DHT22;72320;50.082;20.000;2024-02-14T01:28:43;20.20;35.60
21085;DHT22;72320;50.082;20.000;2024-02-14T01:31:10;20.30;35.80
21085;DHT22;72320;50.082;20.000;2024-02-14T01:33:37;20.30;35.70
21085;DHT22;72320;50.082;20.000;2024-02-14T01:36:07;20.20;36.00
21085;DHT22;72320;50.082;20.000;2024-02-14T01:38:35;20.10;35.90
21085;DHT22;72320;50.082;20.000;2024-02-14T01:41:02;20.20;36.10
21085;DHT22;72320;50.082;20.000;2024-02-14T01:43:29;20.20;36.10
21085;DHT22;72320;50.082;20.000;2024-02-14T01:46:04;20.30;36.10
21085;DHT22;72320;50.082;20.000;2024-02-14T01:48:31;20.40;35.90
21085;DHT22;72320;50.082;20.000;2024-02-14T01:51:00;20.50;35.90
21085;DHT22;72320;50.082;20.000;2024-02-14T01:53:30;20.60;35.80
21085;DHT22;72320;50.082;20.000;2024-02-14T01:55:58;20.60;35.70
21085;DHT22;72320;50.082;20.000;2024-02-14T01:58:26;20.60;35.70
21085;DHT22;72320;50.082;20.000;2024-02-14T02:00:54;20.60;35.60
21085;DHT22;72320;50.082;20.000;2024-02-14T02:03:23;20.60;36.30
21085;DHT22;72320;50.082;20.000;2024-02-14T02:05:50;20.70;35.60
21085;DHT22;72320;50.082;20.000;2024-02-14T02:08:19;20.60;35.50
21085;DHT22;72320;50.082;20.000;2024-02-14T02:10:47;20.50;35.50
21085;DHT22;72320;50.082;20.000;2024-02-14T02:13:17;20.60;35.60
21085;DHT22;72320;50.082;20.000;2024-02-14T02:15:44;20.60;35.50
21085;DHT22;72320;50.082;20.000;2024-02-14T02:18:12;20.30;35.70
21085;DHT22;72320;50.082;20.000;2024-02-14T02:20:38;20.20;36.00
21085;DHT22;72320;50.082;20.000;2024-02-14T02:23:04;20.10;36.10
21085;DHT22;72320;50.082;20.000;2024-02-14T02:25:30;19.60;36.90
21085;DHT22;72320;50.082;20.000;2024-02-14T02:27:56;19.50;37.20
21085;DHT22;72320;50.082;20.000;2024-02-14T02:30:23;19.70;37.00
21085;DHT22;72320;50.082;20.000;2024-02-14T02:32:52;19.80;36.90
21085;DHT22;72320;50.082;20.000;2024-02-14T02:35:20;19.80;36.70
21085;DHT22;72320;50.082;20.000;2024-02-14T02:37:49;19.80;37.60
21085;DHT22;72320;50.082;20.000;2024-02-14T02:40:16;19.80;36.70
21085;DHT22;72320;50.082;20.000;2024-02-14T02:42:43;19.80;36.80
21085;DHT22;72320;50.082;20.000;2024-02-14T02:45:10;19.90;36.80
21085;DHT22;72320;50.082;20.000;2024-02-14T02:47:37;19.80;36.40
21085;DHT22;72320;50.082;20.000;2024-02-14T02:50:05;19.80;36.70
21085;DHT22;72320;50.082;20.000;2024-02-14T02:52:33;19.80;36.70
21085;DHT22;72320;50.082;20.000;2024-02-14T02:55:01;19.90;36.80
21085;DHT22;72320;50.082;20.000;2024-02-14T02:57:30;20.00;36.70
21085;DHT22;72320;50.082;20.000;2024-02-14T02:59:57;20.10;36.70
21085;DHT22;72320;50.082;20.000;2024-02-14T03:02:23;20.10;36.60
21085;DHT22;72320;50.082;20.000;2024-02-14T03:04:51;20.10;36.50
21085;DHT22;72320;50.082;20.000;2024-02-14T03:07:18;20.10;36.40
21085;DHT22;72320;50.082;20.000;2024-02-14T03:09:46;20.20;36.40
21085;DHT22;72320;50.082;20.000;2024-02-14T03:12:11;20.20;36.50
21085;DHT22;72320;50.082;20.000;2024-02-14T03:14:41;20.20;36.40
21085;DHT22;72320;50.082;20.000;2024-02-14T03:17:09;20.20;36.30
21085;DHT22;72320;50.082;20.000;2024-02-14T03:19:35;20.20;36.30
21085;DHT22;72320;50.082;20.000;2024-02-14T03:22:04;20.20;36.30
21085;DHT22;72320;50.082;20.000;2024-02-14T03:24:34;20.30;36.30
21085;DHT22;72320;50.082;20.000;2024-02-14T03:27:02;20.30;36.30
21085;DHT22;72320;50.082;20.000;2024-02-14T03:29:30;20.30;36.10
21085;DHT22;72320;50.082;20.000;2024-02-14T03:31:57;20.30;36.10
21085;DHT22;72320;50.082;20.000;2024-02-14T03:34:29;20.40;36.00
21085;DHT22;72320;50.082;20.000;2024-02-14T03:36:57;20.40;36.00
21085;DHT22;72320;50.082;20.000;2024-02-14T03:39:30;20.40;36.00
21085;DHT22;72320;50.082;20.000;2024-02-14T03:41:57;20.40;36.00
21085;DHT22;72320;50.082;20.000;2024-02-14T03:44:26;20.50;36.10
21085;DHT22;72320;50.082;20.000;2024-02-14T03:46:52;20.40;35.90
21085;DHT22;72320;50.082;20.000;2024-02-14T03:49:18;20.40;36.00
21085;DHT22;72320;50.082;20.000;2024-02-14T03:51:46;20.50;36.20
21085;DHT22;72320;50.082;20.000;2024-02-14T03:54:14;20.40;36.10
21085;DHT22;72320;50.082;20.000;2024-02-14T03:56:40;20.40;36.10
21085;DHT22;72320;50.082;20.000;2024-02-14T03:59:06;20.40;36.00
21085;DHT22;72320;50.082;20.000;2024-02-14T04:01:33;20.30;36.20
21085;DHT22;72320;50.082;20.000;2024-02-14T04:03:59;20.30;36.20
21085;DHT22;72320;50.082;20.000;2024-02-14T04:06:26;20.40;36.30
21085;DHT22;72320;50.082;20.000;2024-02-14T04:08:52;20.40;36.20
21085;DHT22;72320;50.082;20.000;2024-02-14T04:11:19;20.50;36.20
21085;DHT22;72320;50.082;20.000;2024-02-14T04:13:47;20.50;36.00
21085;DHT22;72320;50.082;20.000;2024-02-14T04:16:13;20.50;35.90
21085;DHT22;72320;50.082;20.000;2024-02-14T04:18:46;20.50;35.90
21085;DHT22;72320;50.082;20.000;2024-02-14T04:21:12;20.40;36.00
21085;DHT22;72320;50.082;20.000;2024-02-14T04:23:40;20.40;36.10
21085;DHT22;72320;50.082;20.000;2024-02-14T04:26:06;20.40;36.20
21085;DHT22;72320;50.082;20.000;2024-02-14T04:28:33;20.30;36.20
21085;DHT22;72320;50.082;20.000;2024-02-14T04:31:03;20.40;36.30
21085;DHT22;72320;50.082;20.000;2024-02-14T04:33:31;20.30;36.30
21085;DHT22;72320;50.082;20.000;2024-02-14T04:35:58;20.30;36.20
21085;DHT22;72320;50.082;20.000;2024-02-14T04:38:24;20.30;36.30
21085;DHT22;72320;50.082;20.000;2024-02-14T04:40:51;20.30;36.30
21085;DHT22;72320;50.082;20.000;2024-02-14T04:43:17;20.30;36.30
21085;DHT22;72320;50.082;20.000;2024-02-14T04:45:43;20.30;36.40
21085;DHT22;72320;50.082;20.000;2024-02-14T04:48:10;20.20;36.40
21085;DHT22;72320;50.082;20.000;2024-02-14T04:50:36;20.10;36.40
21085;DHT22;72320;50.082;20.000;2024-02-14T04:53:04;20.10;36.70
21085;DHT22;72320;50.082;20.000;2024-02-14T04:55:30;20.10;36.80
21085;DHT22;72320;50.082;20.000;2024-02-14T04:57:57;20.10;36.70
21085;DHT22;72320;50.082;20.000;2024-02-14T05:00:25;19.90;36.70
21085;DHT22;72320;50.082;20.000;2024-02-14T05:02:52;19.80;36.90
21085;DHT22;72320;50.082;20.000;2024-02-14T05:05:19;19.80;36.90
21085;DHT22;72320;50.082;20.000;2024-02-14T05:07:46;19.80;37.10
21085;DHT22;72320;50.082;20.000;2024-02-14T05:10:12;19.80;37.20
21085;DHT22;72320;50.082;20.000;2024-02-14T05:12:39;19.80;37.30
21085;DHT22;72320;50.082;20.000;2024-02-14T05:15:06;19.70;37.20
21085;DHT22;72320;50.082;20.000;2024-02-14T05:17:33;19.70;37.40
21085;DHT22;72320;50.082;20.000;2024-02-14T05:20:00;19.60;37.10
21085;DHT22;72320;50.082;20.000;2024-02-14T05:22:26;19.50;37.50
21085;DHT22;72320;50.082;20.000;2024-02-14T05:24:52;19.40;37.50
21085;DHT22;72320;50.082;20.000;2024-02-14T05:27:18;19.40;37.80
21085;DHT22;72320;50.082;20.000;2024-02-14T05:29:47;19.50;37.80
21085;DHT22;72320;50.082;20.000;2024-02-14T05:32:14;19.50;37.70
21085;DHT22;72320;50.082;20.000;2024-02-14T05:34:41;19.40;37.70
21085;DHT22;72320;50.082;20.000;2024-02-14T05:37:07;19.50;37.70
21085;DHT22;72320;50.082;20.000;2024-02-14T05:39:33;19.50;37.80
21085;DHT22;72320;50.082;20.000;2024-02-14T05:42:00;19.60;37.80
21085;DHT22;72320;50.082;20.000;2024-02-14T05:44:27;19.60;37.60
21085;DHT22;72320;50.082;20.000;2024-02-14T05:46:55;19.70;37.50
21085;DHT22;72320;50.082;20.000;2024-02-14T05:49:21;19.60;37.50
21085;DHT22;72320;50.082;20.000;2024-02-14T05:51:47;19.60;37.50
21085;DHT22;72320;50.082;20.000;2024-02-14T05:54:13;19.70;37.50
21085;DHT22;72320;50.082;20.000;2024-02-14T05:56:40;19.60;37.40
21085;DHT22;72320;50.082;20.000;2024-02-14T05:59:07;19.40;37.60
21085;DHT22;72320;50.082;20.000;2024-02-14T06:01:35;19.40;37.90
21085;DHT22;72320;50.082;20.000;2024-02-14T06:04:03;19.50;37.80
21085;DHT22;72320;50.082;20.000;2024-02-14T06:06:30;19.60;37.80
21085;DHT22;72320;50.082;20.000;2024-02-14T06:08:56;19.60;37.70
21085;DHT22;72320;50.082;20.000;2024-02-14T06:11:23;19.70;37.60
21085;DHT22;72320;50.082;20.000;2024-02-14T06:13:49;19.80;37.50
21085;DHT22;72320;50.082;20.000;2024-02-14T06:16:15;19.90;37.40
21085;DHT22;72320;50.082;20.000;2024-02-14T06:18:42;19.90;37.30
21085;DHT22;72320;50.082;20.000;2024-02-14T06:21:09;19.90;37.10
21085;DHT22;72320;50.082;20.000;2024-02-14T06:23:36;19.90;37.10
21085;DHT22;72320;50.082;20.000;2024-02-14T06:26:08;19.80;37.10
21085;DHT22;72320;50.082;20.000;2024-02-14T06:28:34;19.90;37.20
21085;DHT22;72320;50.082;20.000;2024-02-14T06:31:00;19.90;37.10
21085;DHT22;72320;50.082;20.000;2024-02-14T06:33:26;19.90;37.10
21085;DHT22;72320;50.082;20.000;2024-02-14T06:35:53;19.80;37.10
21085;DHT22;72320;50.082;20.000;2024-02-14T06:38:19;19.80;37.10
21085;DHT22;72320;50.082;20.000;2024-02-14T06:40:45;19.70;37.20
21085;DHT22;72320;50.082;20.000;2024-02-14T06:43:11;19.70;37.20
21085;DHT22;72320;50.082;20.000;2024-02-14T06:45:37;19.70;37.40
21085;DHT22;72320;50.082;20.000;2024-02-14T06:48:04;19.70;37.40
21085;DHT22;72320;50.082;20.000;2024-02-14T06:50:33;19.60;37.40
21085;DHT22;72320;50.082;20.000;2024-02-14T06:53:06;19.70;37.50
21085;DHT22;72320;50.082;20.000;2024-02-14T06:55:35;19.60;37.50
21085;DHT22;72320;50.082;20.000;2024-02-14T06:58:07;19.40;37.30
21085;DHT22;72320;50.082;20.000;2024-02-14T07:00:35;19.20;37.70
21085;DHT22;72320;50.082;20.000;2024-02-14T07:03:07;19.20;37.90
21085;DHT22;72320;50.082;20.000;2024-02-14T07:05:43;19.10;38.00
21085;DHT22;72320;50.082;20.000;2024-02-14T07:08:11;19.00;38.10
21085;DHT22;72320;50.082;20.000;2024-02-14T07:10:45;18.60;38.90
21085;DHT22;72320;50.082;20.000;2024-02-14T07:13:39;18.50;39.20
21085;DHT22;72320;50.082;20.000;2024-02-14T07:16:13;18.60;39.30
21085;DHT22;72320;50.082;20.000;2024-02-14T07:18:49;18.50;39.50
21085;DHT22;72320;50.082;20.000;2024-02-14T07:21:19;18.60;39.40
21085;DHT22;72320;50.082;20.000;2024-02-14T07:23:52;18.80;39.30
21085;DHT22;72320;50.082;20.000;2024-02-14T07:27:02;18.90;39.30
21085;DHT22;72320;50.082;20.000;2024-02-14T07:29:30;19.00;39.00
21085;DHT22;72320;50.082;20.000;2024-02-14T07:31:58;19.20;38.90
21085;DHT22;72320;50.082;20.000;2024-02-14T07:34:30;19.30;38.80
21085;DHT22;72320;50.082;20.000;2024-02-14T07:36:58;19.50;38.70
21085;DHT22;72320;50.082;20.000;2024-02-14T07:39:24;19.60;38.40
21085;DHT22;72320;50.082;20.000;2024-02-14T07:41:51;19.60;38.30
21085;DHT22;72320;50.082;20.000;2024-02-14T07:44:19;19.60;38.30
21085;DHT22;72320;50.082;20.000;2024-02-14T07:46:52;19.80;38.00
21085;DHT22;72320;50.082;20.000;2024-02-14T07:49:19;20.00;37.80
21085;DHT22;72320;50.082;20.000;2024-02-14T07:51:45;20.10;37.60
21085;DHT22;72320;50.082;20.000;2024-02-14T07:54:13;20.20;37.30
21085;DHT22;72320;50.082;20.000;2024-02-14T07:56:42;20.30;37.20
21085;DHT22;72320;50.082;20.000;2024-02-14T07:59:09;20.30;37.20
21085;DHT22;72320;50.082;20.000;2024-02-14T08:01:35;20.30;37.00
21085;DHT22;72320;50.082;20.000;2024-02-14T08:04:03;20.40;36.90
21085;DHT22;72320;50.082;20.000;2024-02-14T08:06:30;20.30;37.00
21085;DHT22;72320;50.082;20.000;2024-02-14T08:08:56;20.30;36.70
21085;DHT22;72320;50.082;20.000;2024-02-14T08:11:27;20.30;36.90
21085;DHT22;72320;50.082;20.000;2024-02-14T08:13:54;20.40;36.50
21085;DHT22;72320;50.082;20.000;2024-02-14T08:16:22;20.50;36.20
21085;DHT22;72320;50.082;20.000;2024-02-14T08:18:48;20.70;36.00
21085;DHT22;72320;50.082;20.000;2024-02-14T08:21:16;20.80;35.70
21085;DHT22;72320;50.082;20.000;2024-02-14T08:23:42;20.80;35.80
21085;DHT22;72320;50.082;20.000;2024-02-14T08:26:08;21.00;35.70
21085;DHT22;72320;50.082;20.000;2024-02-14T08:28:36;21.00;35.50
21085;DHT22;72320;50.082;20.000;2024-02-14T08:31:03;21.20;35.10
21085;DHT22;72320;50.082;20.000;2024-02-14T08:33:35;21.30;34.80
21085;DHT22;72320;50.082;20.000;2024-02-14T08:36:02;21.10;35.60
21085;DHT22;72320;50.082;20.000;2024-02-14T08:38:38;21.20;35.20
21085;DHT22;72320;50.082;20.000;2024-02-14T08:41:08;21.30;34.90
21085;DHT22;72320;50.082;20.000;2024-02-14T08:43:37;21.40;34.80
21085;DHT22;72320;50.082;20.000;2024-02-14T08:46:08;21.50;34.70
21085;DHT22;72320;50.082;20.000;2024-02-14T08:48:37;21.60;34.00
21085;DHT22;72320;50.082;20.000;2024-02-14T08:51:11;21.60;34.10
21085;DHT22;72320;50.082;20.000;2024-02-14T08:53:38;21.70;33.40
21085;DHT22;72320;50.082;20.000;2024-02-14T08:56:04;21.70;33.80
21085;DHT22;72320;50.082;20.000;2024-02-14T08:58:31;21.30;34.20
21085;DHT22;72320;50.082;20.000;2024-02-14T09:00:58;21.40;33.70
21085;DHT22;72320;50.082;20.000;2024-02-14T09:03:24;21.60;33.10
21085;DHT22;72320;50.082;20.000;2024-02-14T09:05:49;21.70;32.80
21085;DHT22;72320;50.082;20.000;2024-02-14T09:08:16;21.60;33.30
21085;DHT22;72320;50.082;20.000;2024-02-14T09:10:42;21.50;33.20
21085;DHT22;72320;50.082;20.000;2024-02-14T09:13:08;21.60;33.00
21085;DHT22;72320;50.082;20.000;2024-02-14T09:15:34;21.80;32.60
21085;DHT22;72320;50.082;20.000;2024-02-14T09:18:01;21.80;32.80
21085;DHT22;72320;50.082;20.000;2024-02-14T09:20:28;21.90;32.50
21085;DHT22;72320;50.082;20.000;2024-02-14T09:22:56;21.80;31.50
21085;DHT22;72320;50.082;20.000;2024-02-14T09:25:24;21.70;30.80
21085;DHT22;72320;50.082;20.000;2024-02-14T09:27:52;21.90;30.10
21085;DHT22;72320;50.082;20.000;2024-02-14T09:30:20;21.90;30.50
21085;DHT22;72320;50.082;20.000;2024-02-14T09:32:48;21.80;28.70
21085;DHT22;72320;50.082;20.000;2024-02-14T09:35:15;21.90;29.00
21085;DHT22;72320;50.082;20.000;2024-02-14T09:37:43;22.10;28.70
21085;DHT22;72320;50.082;20.000;2024-02-14T09:40:26;22.30;28.70
21085;DHT22;72320;50.082;20.000;2024-02-14T09:42:56;22.50;28.10
21085;DHT22;72320;50.082;20.000;2024-02-14T09:46:08;22.50;28.40
21085;DHT22;72320;50.082;20.000;2024-02-14T09:48:52;22.70;27.50
21085;DHT22;72320;50.082;20.000;2024-02-14T09:51:44;22.80;27.80
21085;DHT22;72320;50.082;20.000;2024-02-14T09:54:31;23.00;27.30
21085;DHT22;72320;50.082;20.000;2024-02-14T09:57:01;23.20;26.70
21085;DHT22;72320;50.082;20.000;2024-02-14T09:59:28;23.30;27.00
21085;DHT22;72320;50.082;20.000;2024-02-14T10:01:56;23.60;26.60
21085;DHT22;72320;50.082;20.000;2024-02-14T10:04:23;23.80;26.70
21085;DHT22;72320;50.082;20.000;2024-02-14T10:06:51;24.40;26.30
21085;DHT22;72320;50.082;20.000;2024-02-14T10:09:20;25.00;26.10
21085;DHT22;72320;50.082;20.000;2024-02-14T10:12:17;25.30;25.80
21085;DHT22;72320;50.082;20.000;2024-02-14T10:14:46;25.60;25.50
21085;DHT22;72320;50.082;20.000;2024-02-14T10:17:18;25.50;25.10
21085;DHT22;72320;50.082;20.000;2024-02-14T10:20:36;25.40;25.20
21085;DHT22;72320;50.082;20.000;2024-02-14T10:23:23;25.60;24.80
21085;DHT22;72320;50.082;20.000;2024-02-14T10:25:50;25.80;24.50
21085;DHT22;72320;50.082;20.000;2024-02-14T10:28:28;25.80;24.30
21085;DHT22;72320;50.082;20.000;2024-02-14T10:30:55;26.00;23.90
21085;DHT22;72320;50.082;20.000;2024-02-14T10:33:22;25.90;24.00
21085;DHT22;72320;50.082;20.000;2024-02-14T10:35:49;25.90;24.50
21085;DHT22;72320;50.082;20.000;2024-02-14T10:38:22;25.80;24.10
21085;DHT22;72320;50.082;20.000;2024-02-14T10:40:51;25.90;23.90
21085;DHT22;72320;50.082;20.000;2024-02-14T10:43:18;25.70;24.30
21085;DHT22;72320;50.082;20.000;2024-02-14T10:45:45;25.40;24.60
21085;DHT22;72320;50.082;20.000;2024-02-14T10:48:14;25.40;24.70
21085;DHT22;72320;50.082;20.000;2024-02-14T10:50:44;25.50;24.70
21085;DHT22;72320;50.082;20.000;2024-02-14T10:53:13;25.70;24.90
21085;DHT22;72320;50.082;20.000;2024-02-14T10:55:47;25.80;24.70
21085;DHT22;72320;50.082;20.000;2024-02-14T10:58:18;25.90;24.00
21085;DHT22;72320;50.082;20.000;2024-02-14T11:00:44;25.70;24.20
21085;DHT22;72320;50.082;20.000;2024-02-14T11:03:12;25.50;24.30
21085;DHT22;72320;50.082;20.000;2024-02-14T11:05:45;25.30;24.70
21085;DHT22;72320;50.082;20.000;2024-02-14T11:08:14;25.40;24.40
21085;DHT22;72320;50.082;20.000;2024-02-14T11:10:53;25.50;24.50
21085;DHT22;72320;50.082;20.000;2024-02-14T11:13:25;25.30;24.50
21085;DHT22;72320;50.082;20.000;2024-02-14T11:15:53;25.30;24.50
21085;DHT22;72320;50.082;20.000;2024-02-14T11:18:27;25.20;24.50
21085;DHT22;72320;50.082;20.000;2024-02-14T11:21:02;25.30;24.70
21085;DHT22;72320;50.082;20.000;2024-02-14T11:23:30;25.50;24.60
21085;DHT22;72320;50.082;20.000;2024-02-14T11:26:03;25.70;24.40
21085;DHT22;72320;50.082;20.000;2024-02-14T11:28:30;25.90;23.80
21085;DHT22;72320;50.082;20.000;2024-02-14T11:31:01;26.00;24.90
21085;DHT22;72320;50.082;20.000;2024-02-14T11:33:29;26.10;24.30
21085;DHT22;72320;50.082;20.000;2024-02-14T11:35:55;26.20;24.10
21085;DHT22;72320;50.082;20.000;2024-02-14T11:38:22;26.10;24.20
21085;DHT22;72320;50.082;20.000;2024-02-14T11:40:51;26.10;24.10
21085;DHT22;72320;50.082;20.000;2024-02-14T11:43:22;26.00;24.20
21085;DHT22;72320;50.082;20.000;2024-02-14T11:45:48;26.10;23.90
21085;DHT22;72320;50.082;20.000;2024-02-14T11:48:17;26.20;24.00
21085;DHT22;72320;50.082;20.000;2024-02-14T11:50:48;26.20;23.90
21085;DHT22;72320;50.082;20.000;2024-02-14T11:53:17;26.30;23.90
21085;DHT22;72320;50.082;20.000;2024-02-14T11:55:46;26.50;23.60
21085;DHT22;72320;50.082;20.000;2024-02-14T11:58:13;26.60;23.70
21085;DHT22;72320;50.082;20.000;2024-02-14T12:00:44;26.70;23.70
21085;DHT22;72320;50.082;20.000;2024-02-14T12:03:12;26.60;23.80
21085;DHT22;72320;50.082;20.000;2024-02-14T12:05:45;26.50;23.60
21085;DHT22;72320;50.082;20.000;2024-02-14T12:08:16;26.40;23.80
21085;DHT22;72320;50.082;20.000;2024-02-14T12:10:48;26.40;23.50
21085;DHT22;72320;50.082;20.000;2024-02-14T12:13:16;26.40;23.40
21085;DHT22;72320;50.082;20.000;2024-02-14T12:15:55;26.10;23.50
21085;DHT22;72320;50.082;20.000;2024-02-14T12:18:21;26.10;23.40
21085;DHT22;72320;50.082;20.000;2024-02-14T12:20:48;25.90;23.70
21085;DHT22;72320;50.082;20.000;2024-02-14T12:23:18;25.80;23.70
21085;DHT22;72320;50.082;20.000;2024-02-14T12:25:48;25.90;23.80
21085;DHT22;72320;50.082;20.000;2024-02-14T12:28:19;25.90;24.30
21085;DHT22;72320;50.082;20.000;2024-02-14T12:30:51;26.00;23.60
21085;DHT22;72320;50.082;20.000;2024-02-14T12:33:21;26.00;23.30
21085;DHT22;72320;50.082;20.000;2024-02-14T12:35:49;25.60;23.60
21085;DHT22;72320;50.082;20.000;2024-02-14T12:38:19;25.60;23.60
21085;DHT22;72320;50.082;20.000;2024-02-14T12:40:46;25.70;23.50
21085;DHT22;72320;50.082;20.000;2024-02-14T12:43:13;25.70;23.50
21085;DHT22;72320;50.082;20.000;2024-02-14T12:45:44;25.90;23.10
21085;DHT22;72320;50.082;20.000;2024-02-14T12:48:10;26.00;23.40
21085;DHT22;72320;50.082;20.000;2024-02-14T12:50:40;26.10;23.20
21085;DHT22;72320;50.082;20.000;2024-02-14T12:53:16;26.20;22.90
21085;DHT22;72320;50.082;20.000;2024-02-14T12:55:42;25.70;23.10
21085;DHT22;72320;50.082;20.000;2024-02-14T12:58:08;25.40;23.40
21085;DHT22;72320;50.082;20.000;2024-02-14T13:00:35;25.50;23.00
21085;DHT22;72320;50.082;20.000;2024-02-14T13:03:03;25.80;22.90
21085;DHT22;72320;50.082;20.000;2024-02-14T13:05:30;25.70;23.10
21085;DHT22;72320;50.082;20.000;2024-02-14T13:07:56;25.90;22.90
21085;DHT22;72320;50.082;20.000;2024-02-14T13:10:22;26.10;22.90
21085;DHT22;72320;50.082;20.000;2024-02-14T13:12:48;26.20;23.10
21085;DHT22;72320;50.082;20.000;2024-02-14T13:15:16;26.20;23.10
21085;DHT22;72320;50.082;20.000;2024-02-14T13:17:42;26.30;23.10
21085;DHT22;72320;50.082;20.000;2024-02-14T13:20:08;26.30;23.00
21085;DHT22;72320;50.082;20.000;2024-02-14T13:22:36;26.40;23.00
21085;DHT22;72320;50.082;20.000;2024-02-14T13:25:02;26.50;23.00
21085;DHT22;72320;50.082;20.000;2024-02-14T13:27:31;26.40;22.40
21085;DHT22;72320;50.082;20.000;2024-02-14T13:29:57;26.20;22.80
21085;DHT22;72320;50.082;20.000;2024-02-14T13:32:23;25.80;23.40
21085;DHT22;72320;50.082;20.000;2024-02-14T13:34:50;25.40;23.10
21085;DHT22;72320;50.082;20.000;2024-02-14T13:37:17;25.40;23.30
21085;DHT22;72320;50.082;20.000;2024-02-14T13:39:43;25.40;23.40
21085;DHT22;72320;50.082;20.000;2024-02-14T13:42:09;25.50;23.30
21085;DHT22;72320;50.082;20.000;2024-02-14T13:44:35;25.70;23.10
21085;DHT22;72320;50.082;20.000;2024-02-14T13:47:01;25.80;23.10
21085;DHT22;72320;50.082;20.000;2024-02-14T13:49:28;25.80;23.00
21085;DHT22;72320;50.082;20.000;2024-02-14T13:51:54;25.70;22.80
21085;DHT22;72320;50.082;20.000;2024-02-14T13:54:21;25.60;23.00
21085;DHT22;72320;50.082;20.000;2024-02-14T13:56:50;25.40;23.00
21085;DHT22;72320;50.082;20.000;2024-02-14T13:59:17;25.40;23.10
21085;DHT22;72320;50.082;20.000;2024-02-14T14:01:45;25.50;23.10
21085;DHT22;72320;50.082;20.000;2024-02-14T14:04:12;25.60;23.30
21085;DHT22;72320;50.082;20.000;2024-02-14T14:06:38;25.50;23.10
21085;DHT22;72320;50.082;20.000;2024-02-14T14:09:05;25.50;23.40
21085;DHT22;72320;50.082;20.000;2024-02-14T14:11:33;25.40;23.30
21085;DHT22;72320;50.082;20.000;2024-02-14T14:14:05;25.30;23.30
21085;DHT22;72320;50.082;20.000;2024-02-14T14:16:35;25.30;23.30
21085;DHT22;72320;50.082;20.000;2024-02-14T14:19:00;25.40;23.10
21085;DHT22;72320;50.082;20.000;2024-02-14T14:21:27;25.50;22.80
21085;DHT22;72320;50.082;20.000;2024-02-14T14:23:53;25.30;23.00
21085;DHT22;72320;50.082;20.000;2024-02-14T14:26:19;25.50;22.90
21085;DHT22;72320;50.082;20.000;2024-02-14T14:28:46;25.20;23.00
21085;DHT22;72320;50.082;20.000;2024-02-14T14:31:13;25.10;23.20
21085;DHT22;72320;50.082;20.000;2024-02-14T14:33:39;25.20;23.40
21085;DHT22;72320;50.082;20.000;2024-02-14T14:36:05;25.30;23.30
21085;DHT22;72320;50.082;20.000;2024-02-14T14:38:32;25.40;23.40
21085;DHT22;72320;50.082;20.000;2024-02-14T14:40:57;25.60;23.40
21085;DHT22;72320;50.082;20.000;2024-02-14T14:43:24;25.60;23.50
21085;DHT22;72320;50.082;20.000;2024-02-14T14:45:50;25.80;23.40
21085;DHT22;72320;50.082;20.000;2024-02-14T14:48:18;25.70;23.50
21085;DHT22;72320;50.082;20.000;2024-02-14T14:50:44;25.80;23.40
21085;DHT22;72320;50.082;20.000;2024-02-14T14:53:11;25.80;23.40
21085;DHT22;72320;50.082;20.000;2024-02-14T14:55:48;25.90;23.40
21085;DHT22;72320;50.082;20.000;2024-02-14T14:58:25;25.80;23.50
21085;DHT22;72320;50.082;20.000;2024-02-14T15:00:58;25.70;23.60
21085;DHT22;72320;50.082;20.000;2024-02-14T15:03:29;25.80;23.80
21085;DHT22;72320;50.082;20.000;2024-02-14T15:05:56;25.70;23.70
21085;DHT22;72320;50.082;20.000;2024-02-14T15:08:22;25.70;23.70
21085;DHT22;72320;50.082;20.000;2024-02-14T15:10:51;25.50;23.70
21085;DHT22;72320;50.082;20.000;2024-02-14T15:13:23;25.40;23.80
21085;DHT22;72320;50.082;20.000;2024-02-14T15:15:50;25.30;23.90
21085;DHT22;72320;50.082;20.000;2024-02-14T15:18:17;25.30;24.00
21085;DHT22;72320;50.082;20.000;2024-02-14T15:20:43;25.40;23.90
21085;DHT22;72320;50.082;20.000;2024-02-14T15:23:09;25.40;23.90